Time;durP1;ratioP1;P1;durP2;ratioP2;P2;SDS_P1;SDS_P2;PMS_P1;PMS_P2;Temp;Humidity;BMP_temperature;BMP_pressure;BME280_temperature;BME280_humidity;BME280_pressure;Samples;Min_cycle;Max_cycle;Signal;HPM_P1;HPM_P2
2023/01/22 00:01:56;;;;;;;13.35;9.20;;;;;;;2.78;59.49;99086.75;4996554;28;20018;-46
2023/01/22 00:04:21;;;;;;;14.73;10.60;;;;;;;2.83;58.78;99085.50;5013118;28;20033;-46
2023/01/22 00:06:47;;;;;;;14.75;9.57;;;;;;;2.81;59.25;99090.81;5012781;28;20495;-46
2023/01/22 00:09:14;;;;;;;17.10;11.82;;;;;;;2.72;59.34;99078.72;5012755;28;20037;-46
2023/01/22 00:11:41;;;;;;;17.55;9.90;;;;;;;2.74;59.59;99080.22;5014234;28;20029;-46
2023/01/22 00:14:07;;;;;;;15.27;8.85;;;;;;;2.84;60.21;99077.59;5014247;28;20056;-46
2023/01/22 00:16:32;;;;;;;15.90;10.68;;;;;;;2.91;59.76;99088.22;5013828;28;20076;-46
2023/01/22 00:18:58;;;;;;;18.88;10.98;;;;;;;2.87;59.09;99092.03;5012678;28;20029;-46
2023/01/22 00:21:24;;;;;;;21.00;11.40;;;;;;;2.75;59.56;99099.16;5012478;28;20024;-46
2023/01/22 00:23:49;;;;;;;15.50;11.23;;;;;;;2.77;60.14;99092.88;5012494;28;20064;-46
2023/01/22 00:26:16;;;;;;;16.15;10.43;;;;;;;2.77;59.62;99094.66;5013748;28;20550;-46
2023/01/22 00:28:45;;;;;;;15.60;9.98;;;;;;;2.77;59.76;99092.88;5012377;28;20030;-46
2023/01/22 00:31:12;;;;;;;17.48;10.23;;;;;;;2.73;59.93;99101.06;5013598;28;20021;-46
2023/01/22 00:33:39;;;;;;;16.77;6.70;;;;;;;2.67;59.58;99094.66;5012350;28;20048;-46
2023/01/22 00:36:11;;;;;;;17.65;10.18;;;;;;;2.75;59.85;99091.38;5013414;28;20018;-46
2023/01/22 00:38:37;;;;;;;17.05;8.93;;;;;;;2.86;59.79;99096.41;5013551;28;20030;-46
2023/01/22 00:41:04;;;;;;;21.02;10.18;;;;;;;2.91;59.74;99108.94;5013703;28;20057;-46
2023/01/22 00:43:32;;;;;;;15.32;9.32;;;;;;;2.96;59.33;99104.16;5013487;28;20018;-46
2023/01/22 00:45:58;;;;;;;14.75;10.48;;;;;;;2.94;58.72;99104.31;5013367;28;20030;-46
2023/01/22 00:48:24;;;;;;;18.25;11.50;;;;;;;3.00;59.41;99116.69;5021055;28;20037;-46
2023/01/22 00:50:50;;;;;;;16.90;11.15;;;;;;;3.19;59.93;99109.81;5033098;28;20099;-44
2023/01/22 00:53:15;;;;;;;16.20;9.68;;;;;;;3.37;59.05;99113.28;5015359;28;20574;-44
2023/01/22 00:55:57;;;;;;;14.85;10.68;;;;;;;3.50;58.67;99106.94;5032852;28;20056;-45
2023/01/22 00:58:23;;;;;;;16.88;8.70;;;;;;;3.65;58.04;99104.69;4998880;28;20512;-45
2023/01/22 01:00:49;;;;;;;15.80;10.25;;;;;;;3.63;56.89;99106.63;5032782;28;20036;-44
2023/01/22 01:03:30;;;;;;;14.23;9.18;;;;;;;3.50;57.20;99099.16;4998726;28;20021;-45
2023/01/22 01:06:05;;;;;;;20.58;9.48;;;;;;;3.34;57.94;99121.38;5015006;28;20031;-44
2023/01/22 01:08:33;;;;;;;15.25;9.50;;;;;;;3.36;57.79;99105.63;5014501;28;20037;-45
2023/01/22 01:11:03;;;;;;;17.23;8.63;;;;;;;3.34;57.25;99113.59;5032613;28;20018;-44
2023/01/22 01:13:31;;;;;;;20.55;11.02;;;;;;;3.28;58.32;99110.72;5032613;28;20022;-44
2023/01/22 01:16:02;;;;;;;13.95;9.63;;;;;;;3.28;57.75;99115.91;5014702;28;20033;-44
2023/01/22 01:18:29;;;;;;;14.43;10.07;;;;;;;3.23;58.00;99105.16;5015102;28;20163;-44
2023/01/22 01:20:56;;;;;;;16.50;8.90;;;;;;;3.16;57.53;99115.31;5032440;28;20040;-44
2023/01/22 01:23:23;;;;;;;12.45;8.43;;;;;;;3.05;57.75;99118.06;5014649;28;20025;-44
2023/01/22 01:25:49;;;;;;;15.00;11.45;;;;;;;3.03;58.84;99119.97;5032393;28;20156;-44
2023/01/22 01:28:14;;;;;;;12.77;9.48;;;;;;;3.12;58.55;99108.72;5032330;28;20505;-45
2023/01/22 01:30:40;;;;;;;17.33;9.85;;;;;;;3.11;58.14;99126.06;5032310;28;20548;-44
2023/01/22 01:33:06;;;;;;;16.90;9.38;;;;;;;3.17;58.10;99120.31;5014731;28;20176;-44
2023/01/22 01:35:31;;;;;;;15.55;9.90;;;;;;;3.11;58.56;99120.88;5014333;28;20537;-44
2023/01/22 01:37:57;;;;;;;14.18;9.80;;;;;;;3.09;58.49;99137.56;5032196;28;20017;-44
2023/01/22 01:40:23;;;;;;;12.13;8.52;;;;;;;3.14;57.97;99122.38;5014362;28;20022;-44
2023/01/22 01:42:49;;;;;;;16.27;9.73;;;;;;;3.10;58.49;99126.22;5032130;28;20049;-44
2023/01/22 01:45:21;;;;;;;16.48;10.00;;;;;;;2.99;58.27;99132.38;5014269;28;20017;-44
2023/01/22 01:48:10;;;;;;;10.93;8.05;;;;;;;2.95;58.70;99131.03;5014018;28;20137;-44
2023/01/22 01:50:39;;;;;;;14.40;10.52;;;;;;;2.97;59.20;99142.91;5019455;28;20382;-44
2023/01/22 01:53:06;;;;;;;13.77;10.60;;;;;;;3.07;58.95;99149.84;5031958;28;20021;-44
2023/01/22 01:55:34;;;;;;;16.38;8.90;;;;;;;3.12;58.89;99130.31;5031868;28;20561;-44
2023/01/22 01:58:09;;;;;;;17.38;10.02;;;;;;;3.12;58.77;99135.50;5031887;28;20083;-44
2023/01/22 02:00:38;;;;;;;14.43;7.45;;;;;;;3.07;58.07;99139.47;5015339;28;20646;-44
2023/01/22 02:03:04;;;;;;;13.35;8.63;;;;;;;2.92;59.24;99132.16;5031870;28;20087;-44
2023/01/22 02:05:37;;;;;;;16.88;10.20;;;;;;;2.86;59.57;99153.44;5014041;28;20608;-44
2023/01/22 02:08:05;;;;;;;24.77;12.63;;;;;;;2.77;59.41;99160.25;5031795;28;20033;-44
2023/01/22 02:10:31;;;;;;;13.77;9.77;;;;;;;2.64;59.57;99159.75;5031775;28;20521;-44
2023/01/22 02:13:02;;;;;;;15.70;9.57;;;;;;;2.63;60.28;99155.50;5032002;28;20022;-44
2023/01/22 02:15:27;;;;;;;18.58;10.32;;;;;;;2.66;60.08;99157.03;5013982;28;20030;-44
2023/01/22 02:17:53;;;;;;;15.82;11.27;;;;;;;2.64;59.88;99156.34;5014013;28;20510;-44
2023/01/22 02:20:19;;;;;;;23.67;13.40;;;;;;;2.54;60.31;99161.53;5016711;28;20592;-44
2023/01/22 02:22:44;;;;;;;15.73;10.52;;;;;;;2.65;60.42;99171.72;5035797;28;20021;-45
2023/01/22 02:25:10;;;;;;;17.95;9.55;;;;;;;2.73;59.63;99171.84;5017964;28;20032;-44
2023/01/22 02:27:37;;;;;;;13.98;9.32;;;;;;;2.70;59.34;99172.16;5035719;28;20033;-44
2023/01/22 02:30:03;;;;;;;15.27;10.23;;;;;;;2.65;60.28;99171.72;5035632;28;20021;-44
2023/01/22 02:32:29;;;;;;;14.32;10.45;;;;;;;2.76;60.28;99181.16;5035635;28;20035;-44
2023/01/22 02:34:55;;;;;;;16.65;10.63;;;;;;;2.75;59.91;99179.50;5035582;28;20029;-44
2023/01/22 02:37:20;;;;;;;20.23;8.85;;;;;;;2.79;59.43;99179.06;5035438;28;20116;-45
2023/01/22 02:39:46;;;;;;;16.23;8.98;;;;;;;2.78;59.64;99187.00;5035463;28;20028;-44
2023/01/22 02:42:12;;;;;;;18.20;9.98;;;;;;;2.76;59.37;99183.75;5001390;28;20060;-44
2023/01/22 02:44:37;;;;;;;17.98;9.60;;;;;;;2.83;60.19;99190.00;5017787;28;20018;-44
2023/01/22 02:47:03;;;;;;;16.83;10.15;;;;;;;2.88;59.75;99187.81;5035309;28;20340;-44
2023/01/22 02:49:29;;;;;;;20.10;10.90;;;;;;;2.92;59.69;99181.41;5014063;28;20046;-45
2023/01/22 02:51:54;;;;;;;24.48;13.50;;;;;;;2.99;59.72;99187.66;5014187;28;20049;-44
2023/01/22 02:54:20;;;;;;;15.18;10.57;;;;;;;2.97;59.36;99179.19;5014146;28;20038;-45
2023/01/22 02:56:46;;;;;;;14.95;11.30;;;;;;;2.92;59.50;99185.78;5014034;28;20030;-44
2023/01/22 02:59:11;;;;;;;17.33;10.48;;;;;;;2.86;59.45;99169.00;5015318;28;20464;-44
2023/01/22 03:01:37;;;;;;;15.30;9.60;;;;;;;2.87;59.91;99185.34;5015606;28;20026;-44
2023/01/22 03:04:10;;;;;;;13.65;9.68;;;;;;;2.86;59.57;99187.13;5015328;28;20064;-44
2023/01/22 03:06:37;;;;;;;14.88;9.80;;;;;;;2.84;59.49;99190.81;5015280;28;20063;-44
2023/01/22 03:09:04;;;;;;;16.35;10.05;;;;;;;2.89;59.40;99191.22;5013931;28;20582;-44
2023/01/22 03:11:31;;;;;;;17.88;10.40;;;;;;;2.89;59.36;99188.63;5013853;28;20026;-45
2023/01/22 03:22:11;;;;;;;12.75;8.48;;;;;;;3.16;58.58;99190.50;5015227;28;20125;-44
2023/01/22 03:24:37;;;;;;;14.10;9.25;;;;;;;3.07;58.51;99186.97;5014919;28;20026;-44
2023/01/22 03:27:03;;;;;;;15.02;9.85;;;;;;;3.01;58.96;99192.69;5014860;28;20064;-44
2023/01/22 03:29:29;;;;;;;13.20;9.50;;;;;;;3.04;59.08;99194.19;5013347;28;20411;-44
2023/01/22 03:31:54;;;;;;;13.48;9.98;;;;;;;3.07;59.20;99186.97;5014482;28;20032;-44
2023/01/22 03:34:22;;;;;;;11.30;9.05;;;;;;;3.18;58.92;99186.81;5014688;28;20022;-45
2023/01/22 03:36:48;;;;;;;12.90;8.52;;;;;;;3.25;58.51;99192.25;5014616;28;20483;-44
2023/01/22 03:39:13;;;;;;;15.98;10.55;;;;;;;3.17;58.13;99192.13;5014663;28;20033;-44
2023/01/22 03:41:39;;;;;;;10.02;7.90;;;;;;;3.09;58.23;99169.47;5013289;28;20033;-44
2023/01/22 03:44:08;;;;;;;14.38;9.90;;;;;;;3.07;57.85;99194.72;5013249;28;20033;-45
2023/01/22 03:46:34;;;;;;;19.23;10.55;;;;;;;3.03;58.85;99195.97;5014469;28;20578;-45
2023/01/22 03:49:00;;;;;;;14.23;9.18;;;;;;;3.11;59.28;99198.69;5026891;28;20041;-44
2023/01/22 03:51:26;;;;;;;13.10;9.50;;;;;;;3.19;59.22;99188.44;5016388;28;20026;-44
2023/01/22 03:53:51;;;;;;;12.65;9.18;;;;;;;3.24;58.79;99190.63;5016373;28;20028;-45
2023/01/22 03:56:19;;;;;;;13.75;9.85;;;;;;;3.28;58.22;99188.53;5033975;28;20469;-45
2023/01/22 03:58:45;;;;;;;11.02;7.90;;;;;;;3.26;58.25;99182.69;5016316;28;20029;-44
2023/01/22 04:01:14;;;;;;;12.85;9.52;;;;;;;3.15;57.97;99194.84;5033973;28;20545;-44
2023/01/22 04:03:40;;;;;;;17.80;8.80;;;;;;;3.14;58.08;99192.38;5033954;28;20045;-44
2023/01/22 04:06:08;;;;;;;15.30;9.90;;;;;;;3.18;58.14;99184.22;5016090;28;20025;-44
2023/01/22 04:08:35;;;;;;;11.77;7.32;;;;;;;3.19;57.87;99175.47;5016148;28;20079;-44
2023/01/22 04:11:02;;;;;;;15.65;10.52;;;;;;;3.15;57.70;99200.03;5033791;28;20083;-44
2023/01/22 04:13:29;;;;;;;13.35;7.90;;;;;;;3.03;58.57;99189.97;5016095;28;20383;-44
2023/01/22 04:15:55;;;;;;;13.18;9.25;;;;;;;2.99;58.77;99199.81;5015861;28;20013;-45
2023/01/22 04:18:21;;;;;;;13.77;9.93;;;;;;;2.90;58.72;99200.66;5033684;28;20029;-44
2023/01/22 04:20:48;;;;;;;13.50;9.40;;;;;;;2.80;59.13;99196.28;5015828;28;20036;-44
2023/01/22 04:23:15;;;;;;;12.48;9.60;;;;;;;2.79;59.16;99196.41;5015797;28;20028;-45
2023/01/22 04:25:40;;;;;;;13.82;8.90;;;;;;;2.73;59.21;99204.75;5033394;28;20068;-45
2023/01/22 04:28:07;;;;;;;15.32;8.85;;;;;;;2.77;59.63;99200.91;5015699;28;20083;-44
2023/01/22 04:30:33;;;;;;;14.02;9.23;;;;;;;2.84;59.29;99198.59;5033447;28;20017;-45
2023/01/22 04:32:58;;;;;;;13.15;8.60;;;;;;;2.73;59.09;99202.16;5033646;28;20406;-44
2023/01/22 04:35:24;;;;;;;11.93;8.57;;;;;;;2.73;59.58;99196.97;5015475;28;20021;-44
2023/01/22 04:37:50;;;;;;;14.57;8.75;;;;;;;2.76;59.62;99207.06;5033309;28;20029;-44
2023/01/22 04:40:16;;;;;;;12.02;8.57;;;;;;;2.82;59.87;99201.34;5033211;28;20061;-44
2023/01/22 04:42:41;;;;;;;15.02;8.85;;;;;;;2.95;59.24;99195.84;5014886;28;20038;-45
2023/01/22 04:45:07;;;;;;;14.02;8.55;;;;;;;3.06;59.08;99198.31;5015319;28;20025;-45
2023/01/22 04:47:33;;;;;;;10.60;7.93;;;;;;;3.19;58.89;99208.38;5015087;28;20053;-45
2023/01/22 04:49:59;;;;;;;12.85;8.90;;;;;;;3.24;57.74;99207.94;5015324;28;20096;-44
2023/01/22 04:52:25;;;;;;;12.23;8.65;;;;;;;3.22;58.17;99213.28;5033056;28;20512;-44
2023/01/22 04:54:52;;;;;;;14.27;8.23;;;;;;;3.26;58.52;99212.03;5015175;28;20040;-45
2023/01/22 04:57:18;;;;;;;15.43;8.20;;;;;;;3.30;58.18;99208.22;5032834;28;20017;-44
2023/01/22 04:59:44;;;;;;;11.45;8.55;;;;;;;3.32;58.13;99211.47;5015148;28;20032;-44
2023/01/22 05:02:09;;;;;;;12.70;8.25;;;;;;;3.36;57.12;99206.81;5015143;28;20025;-45
2023/01/22 05:04:35;;;;;;;13.02;8.90;;;;;;;3.26;57.52;99204.25;5014979;28;20036;-44
2023/01/22 05:07:00;;;;;;;14.35;9.77;;;;;;;3.26;58.15;99193.88;5015169;28;20112;-45
2023/01/22 05:09:26;;;;;;;12.30;8.30;;;;;;;3.29;58.08;99201.38;5014905;28;20025;-45
2023/01/22 05:11:52;;;;;;;13.32;8.27;;;;;;;3.20;57.69;99203.03;5014876;28;20029;-44
2023/01/22 05:14:18;;;;;;;11.82;8.15;;;;;;;3.13;58.28;99195.97;5014964;28;20017;-44
2023/01/22 05:16:43;;;;;;;12.05;8.02;;;;;;;3.10;58.36;99207.44;5014650;28;20040;-45
2023/01/22 05:19:09;;;;;;;13.18;8.77;;;;;;;3.14;58.96;99202.75;5032484;28;20025;-45
2023/01/22 05:21:35;;;;;;;10.38;6.75;;;;;;;3.14;58.73;99202.75;5014820;28;20024;-45
2023/01/22 05:24:01;;;;;;;12.38;7.95;;;;;;;3.06;58.87;99215.59;5014961;28;20033;-45
2023/01/22 05:26:26;;;;;;;13.10;7.47;;;;;;;3.05;59.28;99208.81;5014679;28;20018;-45
2023/01/22 05:28:52;;;;;;;14.00;8.02;;;;;;;3.15;58.81;99215.59;5032340;28;20021;-45
2023/01/22 05:31:18;;;;;;;11.43;7.50;;;;;;;3.18;58.92;99217.13;5032332;28;20049;-44
2023/01/22 05:33:43;;;;;;;12.98;7.20;;;;;;;3.27;58.35;99218.84;5014862;28;20033;-44
2023/01/22 05:36:11;;;;;;;11.60;7.93;;;;;;;3.31;58.89;99209.03;5014431;28;20033;-44
2023/01/22 05:38:37;;;;;;;10.55;8.18;;;;;;;3.33;57.95;99215.69;5014489;28;20506;-44
2023/01/22 05:41:03;;;;;;;12.18;8.25;;;;;;;3.35;58.00;99216.38;5032226;28;20025;-45
2023/01/22 05:43:28;;;;;;;14.85;8.27;;;;;;;3.30;58.05;99215.16;5014429;28;20029;-45
2023/01/22 05:46:00;;;;;;;14.25;8.23;;;;;;;3.12;57.73;99226.28;5032104;28;20028;-45
2023/01/22 05:48:25;;;;;;;11.23;7.97;;;;;;;3.00;57.95;99217.81;5011041;28;20129;-45
2023/01/22 05:50:51;;;;;;;14.68;9.82;;;;;;;2.95;59.39;99222.59;5011004;28;20084;-44
2023/01/22 05:53:17;;;;;;;16.98;9.75;;;;;;;3.07;58.91;99230.22;5011132;28;20025;-44
2023/01/22 05:55:42;;;;;;;10.30;7.32;;;;;;;3.13;58.82;99222.69;5012198;28;20051;-44
2023/01/22 05:58:08;;;;;;;10.43;7.38;;;;;;;3.09;58.54;99210.16;5010921;28;20037;-44
2023/01/22 06:00:34;;;;;;;13.13;8.73;;;;;;;3.00;58.88;99222.19;5012256;28;20109;-44
2023/01/22 06:03:01;;;;;;;12.18;7.45;;;;;;;2.98;58.65;99216.34;5010886;28;20025;-44
2023/01/22 06:05:27;;;;;;;12.90;7.72;;;;;;;2.93;59.37;99214.13;5010837;28;20041;-44
2023/01/22 06:07:52;;;;;;;12.10;8.05;;;;;;;2.93;58.99;99224.50;5012143;28;20430;-44
2023/01/22 06:10:18;;;;;;;10.60;7.22;;;;;;;3.01;58.79;99216.03;5010806;28;20022;-44
2023/01/22 06:12:44;;;;;;;9.95;7.43;;;;;;;3.00;57.91;99227.38;5012316;28;20045;-44
2023/01/22 06:15:10;;;;;;;11.75;9.13;;;;;;;2.85;59.48;99231.34;5010569;28;20057;-45
2023/01/22 06:17:36;;;;;;;14.57;8.32;;;;;;;2.94;59.21;99228.75;5010725;28;20025;-44
2023/01/22 06:20:04;;;;;;;13.18;8.07;;;;;;;3.02;59.35;99230.66;5011949;28;20028;-44
2023/01/22 06:22:29;;;;;;;19.00;8.02;;;;;;;3.12;58.99;99222.84;4994254;28;20211;-44
2023/01/22 06:24:55;;;;;;;14.45;9.32;;;;;;;3.08;58.74;99226.66;5010618;28;20120;-44
2023/01/22 06:27:21;;;;;;;12.00;7.95;;;;;;;3.15;59.03;99218.19;5010596;28;20064;-44
2023/01/22 06:29:46;;;;;;;14.57;6.90;;;;;;;3.10;58.57;99230.78;5011944;28;20484;-44
2023/01/22 06:32:12;;;;;;;11.88;7.93;;;;;;;3.11;58.94;99227.22;5010574;28;20092;-44
2023/01/22 06:34:38;;;;;;;12.98;8.13;;;;;;;3.12;58.51;99235.81;5010544;28;20025;-44
2023/01/22 06:37:04;;;;;;;14.15;8.05;;;;;;;3.12;58.73;99241.81;5011693;28;20041;-44
2023/01/22 06:39:30;;;;;;;15.05;8.13;;;;;;;3.10;58.73;99235.97;5010653;28;20022;-45
2023/01/22 06:41:56;;;;;;;13.02;8.18;;;;;;;2.99;58.71;99247.28;5010431;28;20464;-44
2023/01/22 06:44:22;;;;;;;11.23;7.13;;;;;;;2.97;59.35;99243.19;5010465;28;20478;-44
2023/01/22 06:46:47;;;;;;;11.35;8.93;;;;;;;3.03;59.03;99253.00;5010449;28;20030;-44
2023/01/22 06:49:13;;;;;;;10.32;7.82;;;;;;;3.06;58.99;99251.91;5010222;28;20066;-44
2023/01/22 06:51:40;;;;;;;16.35;8.88;;;;;;;3.08;58.67;99253.44;5011682;28;20022;-44
2023/01/22 06:54:06;;;;;;;12.23;8.10;;;;;;;3.07;58.66;99256.16;5011735;28;20030;-44
2023/01/22 06:56:32;;;;;;;14.60;8.10;;;;;;;3.06;59.09;99246.72;5010241;28;20053;-45
2023/01/22 06:58:58;;;;;;;9.98;6.95;;;;;;;3.13;58.95;99256.41;5011849;28;20060;-44
2023/01/22 07:01:24;;;;;;;29.88;24.92;;;;;;;3.19;58.72;99258.44;5011677;28;20426;-45
2023/01/22 07:03:51;;;;;;;14.40;8.05;;;;;;;3.16;58.18;99260.53;5011509;28;20084;-45
2023/01/22 07:06:17;;;;;;;13.45;7.60;;;;;;;3.10;58.26;99250.69;5012756;28;20471;-44
2023/01/22 07:08:44;;;;;;;12.02;8.68;;;;;;;3.09;58.78;99268.03;5015225;28;20026;-44
2023/01/22 07:11:10;;;;;;;12.38;8.40;;;;;;;3.13;58.71;99266.78;5013849;28;20022;-45
2023/01/22 07:13:36;;;;;;;14.75;9.82;;;;;;;3.16;59.49;99268.31;4997591;28;20034;-45
2023/01/22 07:16:03;;;;;;;14.77;10.10;;;;;;;3.26;58.67;99263.94;5013734;28;20558;-45
2023/01/22 07:18:29;;;;;;;15.65;9.10;;;;;;;3.22;58.16;99265.16;5015296;28;20369;-45
2023/01/22 07:20:59;;;;;;;12.38;7.43;;;;;;;3.25;58.85;99257.09;5013658;28;20511;-44
2023/01/22 07:23:25;;;;;;;22.50;9.48;;;;;;;3.34;59.00;99263.19;5015580;28;20100;-44
2023/01/22 07:25:51;;;;;;;13.38;8.10;;;;;;;3.47;58.81;99278.50;5014864;28;20464;-44
2023/01/22 07:28:16;;;;;;;13.35;8.38;;;;;;;3.43;58.68;99271.94;5013575;28;20037;-45
2023/01/22 07:30:45;;;;;;;15.10;8.50;;;;;;;3.46;57.93;99276.84;5014851;28;20046;-45
2023/01/22 07:33:12;;;;;;;13.32;8.98;;;;;;;3.44;58.11;99273.56;5014673;28;20033;-45
2023/01/22 07:35:38;;;;;;;25.48;18.75;;;;;;;3.37;58.16;99301.84;5013371;28;20310;-45
2023/01/22 07:38:04;;;;;;;17.63;10.70;;;;;;;3.50;58.66;99285.97;5013437;28;20023;-45
2023/01/22 07:40:30;;;;;;;12.18;8.60;;;;;;;3.64;58.29;99289.91;5014657;28;20526;-45
2023/01/22 07:42:56;;;;;;;14.88;9.30;;;;;;;3.74;57.65;99288.94;5013420;28;20080;-44
2023/01/22 07:45:23;;;;;;;12.25;9.30;;;;;;;3.79;57.88;99281.53;5013273;28;20509;-44
2023/01/22 07:47:53;;;;;;;13.02;9.88;;;;;;;3.82;57.16;99284.81;5017453;28;20457;-45
2023/01/22 07:50:20;;;;;;;18.02;10.43;;;;;;;3.67;57.66;99293.03;5034221;28;20025;-45
2023/01/22 07:52:47;;;;;;;17.13;9.52;;;;;;;3.63;58.06;99306.47;5034191;28;20072;-45
2023/01/22 07:55:12;;;;;;;12.35;8.57;;;;;;;3.68;58.02;99301.66;5016284;28;20026;-45
2023/01/22 07:57:38;;;;;;;14.57;9.27;;;;;;;3.74;57.59;99296.72;5016261;28;20398;-45
2023/01/22 08:00:04;;;;;;;13.00;9.52;;;;;;;3.71;57.26;99299.59;5034008;28;20033;-45
2023/01/22 08:02:30;;;;;;;12.98;7.15;;;;;;;3.69;56.68;99287.72;5016244;28;20159;-45
2023/01/22 08:04:55;;;;;;;14.77;9.13;;;;;;;3.59;57.37;99303.31;5016154;28;20033;-44
2023/01/22 08:07:22;;;;;;;9.68;6.80;;;;;;;3.55;57.10;99301.97;5033903;28;20017;-44
2023/01/22 08:09:48;;;;;;;11.93;8.38;;;;;;;3.55;58.04;99307.16;5033933;28;20021;-44
2023/01/22 08:12:14;;;;;;;19.42;8.90;;;;;;;3.53;57.68;99298.69;5016047;28;20459;-45
2023/01/22 08:14:39;;;;;;;12.85;9.35;;;;;;;3.47;57.62;99288.88;5033757;28;20025;-45
2023/01/22 08:17:05;;;;;;;14.70;9.25;;;;;;;3.45;58.12;99296.78;5015831;28;20021;-44
2023/01/22 08:19:31;;;;;;;10.40;8.60;;;;;;;3.45;58.58;99303.75;5033657;28;20053;-44
2023/01/22 08:21:57;;;;;;;12.68;7.97;;;;;;;3.46;58.32;99303.63;5033618;28;20549;-44
2023/01/22 08:24:22;;;;;;;13.75;10.25;;;;;;;3.45;58.66;99312.34;5015796;28;20407;-45
2023/01/22 08:26:48;;;;;;;25.63;10.82;;;;;;;3.54;59.00;99302.91;5015694;28;20055;-44
2023/01/22 08:29:14;;;;;;;14.45;9.35;;;;;;;3.66;59.12;99300.97;5015687;28;20032;-44
2023/01/22 08:31:39;;;;;;;14.85;9.93;;;;;;;3.85;59.17;99293.13;5033474;28;20104;-45
2023/01/22 08:34:05;;;;;;;16.80;9.95;;;;;;;4.03;58.91;99293.22;5015544;28;20041;-45
2023/01/22 08:36:32;;;;;;;14.82;9.60;;;;;;;4.18;58.41;99298.72;5015534;28;20021;-45
2023/01/22 08:38:58;;;;;;;14.43;8.52;;;;;;;4.28;56.85;99299.50;5015501;28;20029;-45
2023/01/22 08:41:24;;;;;;;15.00;9.07;;;;;;;4.20;57.00;99295.06;5033217;28;20394;-45
2023/01/22 08:43:52;;;;;;;14.30;10.25;;;;;;;4.09;57.18;99308.22;5015394;28;20021;-45
2023/01/22 08:46:19;;;;;;;15.32;10.63;;;;;;;4.07;56.74;99294.56;5015551;28;20521;-45
2023/01/22 08:48:45;;;;;;;11.02;8.95;;;;;;;4.03;57.45;99300.19;5032925;28;20045;-45
2023/01/22 08:51:11;;;;;;;14.90;10.02;;;;;;;4.14;57.05;99311.19;5032950;28;20028;-45
2023/01/22 08:53:37;;;;;;;15.52;9.30;;;;;;;4.34;56.80;99305.91;5033086;28;20495;-45
2023/01/22 08:56:03;;;;;;;12.63;9.32;;;;;;;4.54;55.70;99298.81;5015103;28;20036;-45
2023/01/22 08:58:28;;;;;;;12.90;7.40;;;;;;;4.60;55.34;99306.84;5015185;28;20025;-45
2023/01/22 09:00:54;;;;;;;14.45;9.38;;;;;;;4.64;55.52;99311.75;5015314;28;20026;-45
2023/01/22 09:03:20;;;;;;;14.98;9.93;;;;;;;4.73;55.16;99301.31;5033095;28;20057;-44
2023/01/22 09:05:46;;;;;;;12.07;9.07;;;;;;;4.72;55.53;99309.25;5015179;28;20026;-45
2023/01/22 09:08:12;;;;;;;12.57;9.05;;;;;;;4.72;55.79;99310.06;5015041;28;20030;-45
2023/01/22 09:10:38;;;;;;;15.38;9.40;;;;;;;4.79;54.58;99308.50;5032703;28;20105;-44
2023/01/22 09:13:04;;;;;;;15.65;9.00;;;;;;;4.84;54.77;99317.66;5032623;28;20018;-45
2023/01/22 09:15:30;;;;;;;13.75;8.52;;;;;;;4.80;54.56;99328.34;5032545;28;20087;-45
2023/01/22 09:17:56;;;;;;;12.23;8.88;;;;;;;4.84;54.76;99328.06;5032500;28;20491;-45
2023/01/22 09:20:22;;;;;;;11.73;7.65;;;;;;;4.89;54.58;99316.25;5032548;28;20022;-45
2023/01/22 09:22:48;;;;;;;12.70;9.20;;;;;;;4.94;54.16;99331.41;5014738;28;20026;-45
2023/01/22 09:25:15;;;;;;;12.38;8.73;;;;;;;4.84;53.57;99323.66;5032432;28;20075;-45
2023/01/22 09:27:41;;;;;;;14.32;9.20;;;;;;;4.75;54.27;99332.38;5014221;28;20091;-45
2023/01/22 09:30:08;;;;;;;12.68;8.50;;;;;;;4.72;54.34;99336.06;5014624;28;20048;-45
2023/01/22 09:32:34;;;;;;;12.82;8.40;;;;;;;4.80;54.56;99337.94;5032416;28;20025;-45
2023/01/22 09:35:00;;;;;;;12.40;8.70;;;;;;;4.87;54.53;99345.94;5032281;28;20056;-44
2023/01/22 09:37:26;;;;;;;13.45;8.73;;;;;;;4.90;53.68;99333.47;5032113;28;20061;-45
2023/01/22 09:39:51;;;;;;;9.82;7.55;;;;;;;4.93;53.63;99340.16;5014463;28;20033;-45
2023/01/22 09:42:25;;;;;;;10.65;8.13;;;;;;;4.93;53.15;99346.19;5032175;28;20025;-45
2023/01/22 09:44:58;;;;;;;14.93;7.70;;;;;;;4.85;53.31;99309.72;5032232;28;20057;-45
2023/01/22 09:47:51;;;;;;;11.15;8.27;;;;;;;4.79;53.12;99342.31;5032040;28;20026;-45
2023/01/22 09:50:24;;;;;;;12.25;9.15;;;;;;;4.65;53.09;99348.03;4992692;28;20038;-45
2023/01/22 09:52:52;;;;;;;17.17;9.27;;;;;;;4.50;54.75;99352.88;4992773;28;20121;-45
2023/01/22 09:55:22;;;;;;;10.30;7.75;;;;;;;4.48;55.42;99352.19;4992650;28;20014;-45
2023/01/22 09:57:52;;;;;;;15.50;9.00;;;;;;;4.54;55.04;99369.00;4991341;28;20032;-45
2023/01/22 10:00:20;;;;;;;10.90;7.95;;;;;;;4.69;55.16;99364.13;4991370;28;20076;-45
2023/01/22 10:02:53;;;;;;;12.95;9.13;;;;;;;4.91;54.75;99365.50;4975149;28;20026;-45
2023/01/22 10:05:18;;;;;;;17.17;9.35;;;;;;;4.98;52.79;99353.56;4991332;28;20113;-45
2023/01/22 10:08:01;;;;;;;12.73;7.18;;;;;;;4.86;53.39;99368.53;4991200;28;20611;-44
2023/01/22 10:10:28;;;;;;;11.52;8.68;;;;;;;4.76;54.44;99365.19;4992531;28;20038;-45
2023/01/22 10:13:12;;;;;;;9.88;8.25;;;;;;;5.02;54.32;99361.88;4992508;28;20037;-44
2023/01/22 10:15:37;;;;;;;12.48;9.00;;;;;;;5.14;53.61;99363.28;4991285;28;20026;-44
2023/01/22 10:18:15;;;;;;;11.60;8.00;;;;;;;5.03;53.17;99360.91;4991140;28;20026;-44
2023/01/22 10:20:42;;;;;;;8.35;6.40;;;;;;;5.00;53.25;99344.63;4992480;28;20084;-45
2023/01/22 10:23:17;;;;;;;19.75;13.00;;;;;;;4.91;53.69;99361.13;4992407;28;20026;-45
2023/01/22 10:25:42;;;;;;;12.65;9.32;;;;;;;5.11;54.62;99367.03;4992381;28;20399;-45
2023/01/22 10:28:09;;;;;;;16.35;12.10;;;;;;;5.21;53.59;99364.31;4991129;28;20034;-45
2023/01/22 10:30:45;;;;;;;13.32;7.93;;;;;;;5.25;53.78;99360.47;4992628;28;20380;-45
2023/01/22 10:33:19;;;;;;;;;;;;;;;5.35;52.93;99356.00;4992788;28;20030;-45
2023/01/22 10:35:51;;;;;;;13.30;8.63;;;;;;;5.38;53.41;99358.31;4990890;28;19960;-45
2023/01/22 10:38:29;;;;;;;11.98;8.80;;;;;;;5.45;53.29;99350.69;4992322;28;20026;-45
2023/01/22 10:41:03;;;;;;;10.18;6.15;;;;;;;5.45;51.68;99335.06;4993038;28;20104;-44
2023/01/22 10:43:37;;;;;;;15.40;9.30;;;;;;;5.32;51.93;99351.09;4994902;28;20034;-45
2023/01/22 10:46:21;;;;;;;12.05;8.38;;;;;;;5.34;52.42;99362.16;4996084;28;20030;-45
2023/01/22 10:49:01;;;;;;;12.32;8.27;;;;;;;5.36;52.22;99359.44;5005303;28;20041;-45
2023/01/22 10:51:34;;;;;;;11.55;8.48;;;;;;;5.38;52.48;99353.09;5014229;28;20018;-45
2023/01/22 10:54:01;;;;;;;12.43;8.43;;;;;;;5.53;53.05;99355.16;5015574;28;20038;-45
2023/01/22 10:56:33;;;;;;;14.77;8.93;;;;;;;5.61;52.11;99344.78;5015417;28;20022;-45
2023/01/22 10:59:23;;;;;;;13.07;7.53;;;;;;;5.43;51.18;99360.44;5014114;28;20041;-44
2023/01/22 11:01:59;;;;;;;11.45;7.20;;;;;;;5.24;51.65;99350.22;5014586;28;20025;-44
2023/01/22 11:04:34;;;;;;;11.70;8.70;;;;;;;5.09;52.54;99358.53;5014123;28;20064;-45
2023/01/22 11:07:13;;;;;;;10.98;7.60;;;;;;;5.01;52.25;99350.66;5015379;28;20463;-44
2023/01/22 11:09:54;;;;;;;10.52;8.68;;;;;;;5.06;52.59;99343.22;5014039;28;20040;-45
2023/01/22 11:12:44;;;;;;;14.23;9.00;;;;;;;5.14;52.74;99353.69;5015281;28;20080;-44
2023/01/22 11:15:42;;;;;;;11.20;7.70;;;;;;;5.36;52.35;99352.44;5015249;28;20442;-45
2023/01/22 11:18:21;;;;;;;13.82;7.93;;;;;;;5.27;51.27;99350.75;5015197;28;20026;-45
2023/01/22 11:20:59;;;;;;;12.10;8.73;;;;;;;5.11;52.27;99366.19;4997500;28;20034;-45
2023/01/22 11:24:12;;;;;;;13.35;7.68;;;;;;;5.04;51.79;99359.94;5015139;28;20022;-44
2023/01/22 11:26:47;;;;;;;11.77;7.55;;;;;;;5.08;52.31;99337.88;4954387;29;20108;-44
2023/01/22 11:29:31;;;;;;;14.43;8.40;;;;;;;5.07;51.96;99357.88;4954441;29;20039;-45
2023/01/22 11:32:18;;;;;;;15.73;8.07;;;;;;;5.10;52.10;99354.97;4954339;29;20031;-45
2023/01/22 11:35:13;;;;;;;10.60;7.82;;;;;;;5.09;52.21;99347.31;4954299;29;20044;-45
2023/01/22 11:38:09;;;;;;;11.57;7.80;;;;;;;5.11;52.20;99351.41;4954211;29;20047;-45
2023/01/22 11:40:59;;;;;;;10.95;8.10;;;;;;;5.32;52.68;99343.28;4954120;29;20469;-44
2023/01/22 11:44:04;;;;;;;9.77;7.22;;;;;;;5.51;51.94;99342.28;4925019;29;20046;-44
2023/01/22 11:46:49;;;;;;;12.88;8.30;;;;;;;5.60;51.51;99346.59;4915781;29;20413;-45